createdAt,value
2022-11-15T00:01:57.032Z,1.80
2022-11-15T00:04:41.773Z,1.80
2022-11-15T00:07:53.330Z,1.63
2022-11-15T00:10:31.716Z,1.79
2022-11-15T00:13:16.626Z,1.80
2022-11-15T00:16:02.319Z,1.74
2022-11-15T00:18:50.588Z,1.52
2022-11-15T00:21:35.960Z,1.68
2022-11-15T00:24:20.991Z,1.71
2022-11-15T00:27:08.058Z,1.79
2022-11-15T00:29:53.275Z,1.77
2022-11-15T00:32:38.146Z,1.76
2022-11-15T00:35:23.386Z,1.74
2022-11-15T00:38:08.328Z,1.72
2022-11-15T00:40:53.386Z,1.88
2022-11-15T00:43:40.741Z,1.77
2022-11-15T00:46:26.432Z,1.82
2022-11-15T00:49:11.731Z,1.82
2022-11-15T00:51:56.683Z,1.85
2022-11-15T00:54:41.528Z,1.57
2022-11-15T00:57:27.508Z,1.70
2022-11-15T01:00:13.095Z,1.61
2022-11-15T01:02:58.142Z,1.58
2022-11-15T01:05:43.095Z,1.64
2022-11-15T01:08:28.088Z,1.54
2022-11-15T01:11:13.427Z,1.68
2022-11-15T01:13:58.529Z,1.52
2022-11-15T01:16:43.671Z,1.69
2022-11-15T01:19:28.645Z,1.68
2022-11-15T01:22:13.630Z,1.62
2022-11-15T01:24:58.872Z,1.46
2022-11-15T01:27:43.986Z,1.58
2022-11-15T01:30:28.879Z,1.63
2022-11-15T01:33:13.809Z,1.46
2022-11-15T01:35:58.998Z,1.56
2022-11-15T01:38:44.535Z,1.55
2022-11-15T01:41:33.532Z,1.42
2022-11-15T01:44:42.333Z,1.51
2022-11-15T01:47:32.301Z,1.55
2022-11-15T01:50:23.037Z,1.52
2022-11-15T01:53:08.625Z,1.40
2022-11-15T01:55:54.889Z,1.44
2022-11-15T01:58:42.047Z,1.30
2022-11-15T02:01:29.470Z,1.41
2022-11-15T02:04:18.043Z,1.38
2022-11-15T02:07:06.102Z,1.35
2022-11-15T02:09:52.456Z,1.39
2022-11-15T02:12:37.662Z,1.25
2022-11-15T02:15:29.051Z,1.46
2022-11-15T02:18:29.019Z,1.35
2022-11-15T02:21:36.007Z,1.40
2022-11-15T02:24:43.735Z,1.38
2022-11-15T02:27:50.739Z,1.29
2022-11-15T02:30:43.970Z,1.22
2022-11-15T02:33:46.487Z,1.18
2022-11-15T02:37:14.153Z,1.13
2022-11-15T02:40:13.962Z,1.16
2022-11-15T02:43:30.024Z,0.97
2022-11-15T02:46:56.494Z,0.88
2022-11-15T02:49:51.332Z,0.61
2022-11-15T02:52:36.438Z,0.80
2022-11-15T02:55:44.347Z,0.90
2022-11-15T02:58:41.380Z,0.99
2022-11-15T03:01:29.469Z,1.02
2022-11-15T03:04:37.034Z,1.00
2022-11-15T03:07:51.840Z,1.03
2022-11-15T03:10:36.882Z,1.09
2022-11-15T03:13:36.526Z,1.06
2022-11-15T03:16:21.192Z,1.02
2022-11-15T03:19:14.792Z,0.96
2022-11-15T03:22:04.535Z,1.00
2022-11-15T03:24:54.664Z,1.07
2022-11-15T03:27:43.294Z,1.09
2022-11-15T03:30:28.968Z,1.19
2022-11-15T03:33:14.589Z,1.07
2022-11-15T03:36:00.065Z,1.04
2022-11-15T03:38:45.939Z,0.92
2022-11-15T03:41:36.461Z,0.93
2022-11-15T03:44:33.046Z,1.13
2022-11-15T03:47:28.510Z,1.18
2022-11-15T03:50:18.282Z,1.17
2022-11-15T03:53:03.796Z,1.21
2022-11-15T03:55:48.802Z,1.06
2022-11-15T03:58:33.917Z,1.20
2022-11-15T04:01:19.187Z,1.15
2022-11-15T04:04:04.144Z,1.03
2022-11-15T04:06:49.501Z,1.02
2022-11-15T04:09:34.310Z,0.96
2022-11-15T04:12:31.686Z,0.92
2022-11-15T04:15:18.470Z,1.11
2022-11-15T04:18:03.642Z,1.14
2022-11-15T04:21:07.517Z,1.12
2022-11-15T04:23:55.678Z,0.98
2022-11-15T04:26:40.609Z,0.97
2022-11-15T04:29:37.980Z,0.88
2022-11-15T04:32:22.836Z,0.97
2022-11-15T04:35:08.167Z,1.07
2022-11-15T04:37:53.446Z,1.10
2022-11-15T04:40:38.486Z,1.07
2022-11-15T04:43:23.570Z,1.10
2022-11-15T04:46:08.835Z,0.95
2022-11-15T04:48:58.498Z,0.80
2022-11-15T04:51:45.426Z,0.90
2022-11-15T04:54:30.415Z,0.92
2022-11-15T04:57:15.987Z,0.93
2022-11-15T05:00:01.257Z,0.80
2022-11-15T05:03:12.724Z,0.87
2022-11-15T05:05:58.541Z,0.84
2022-11-15T05:08:43.801Z,0.92
2022-11-15T05:11:28.820Z,0.83
2022-11-15T05:14:14.376Z,0.88
2022-11-15T05:16:59.237Z,0.81
2022-11-15T05:19:45.596Z,0.66
2022-11-15T05:22:30.982Z,0.45
2022-11-15T05:25:16.161Z,0.70
2022-11-15T05:28:01.474Z,0.60
2022-11-15T05:30:46.399Z,0.97
2022-11-15T05:33:32.695Z,0.81
2022-11-15T05:36:32.696Z,0.76
2022-11-15T05:39:17.710Z,0.84
2022-11-15T05:42:11.425Z,0.75
2022-11-15T05:44:58.843Z,0.64
2022-11-15T05:47:44.492Z,0.87
2022-11-15T05:50:29.266Z,0.96
2022-11-15T05:53:17.065Z,0.72
2022-11-15T05:56:04.282Z,0.80
2022-11-15T05:58:49.501Z,0.76
2022-11-15T06:01:34.827Z,0.74
2022-11-15T06:04:20.022Z,0.45
2022-11-15T06:07:04.944Z,0.41
2022-11-15T06:09:49.714Z,0.66
2022-11-15T06:12:34.639Z,0.66
2022-11-15T06:15:19.537Z,0.62
2022-11-15T06:18:04.625Z,0.67
2022-11-15T06:20:49.818Z,0.70
2022-11-15T06:23:35.874Z,0.70
2022-11-15T06:26:21.123Z,0.78
2022-11-15T06:29:06.250Z,0.71
2022-11-15T06:31:51.884Z,0.89
2022-11-15T06:34:36.997Z,0.76
2022-11-15T06:37:21.934Z,0.78
2022-11-15T06:40:09.031Z,0.83
2022-11-15T06:43:01.787Z,0.91
2022-11-15T06:45:46.865Z,0.74
2022-11-15T06:48:33.099Z,0.82
2022-11-15T06:51:18.385Z,0.78
2022-11-15T06:54:03.299Z,0.92
2022-11-15T06:56:48.502Z,1.01
2022-11-15T06:59:37.810Z,1.04
2022-11-15T07:02:25.510Z,0.96
2022-11-15T07:05:11.651Z,1.08
2022-11-15T07:07:57.857Z,1.10
2022-11-15T07:10:42.929Z,1.01
2022-11-15T07:13:29.570Z,1.13
2022-11-15T07:16:14.822Z,1.03
2022-11-15T07:18:59.928Z,1.20
2022-11-15T07:21:45.107Z,1.16
2022-11-15T07:24:30.040Z,0.97
2022-11-15T07:27:15.766Z,1.18
2022-11-15T07:30:00.964Z,1.08
2022-11-15T07:32:47.548Z,1.08
2022-11-15T07:35:32.652Z,1.14
2022-11-15T07:38:21.192Z,1.10
2022-11-15T07:41:07.372Z,1.03
2022-11-15T07:43:53.538Z,1.41
2022-11-15T07:46:38.705Z,1.46
2022-11-15T07:49:23.906Z,1.40
2022-11-15T07:52:08.876Z,1.52
2022-11-15T07:54:53.738Z,1.52
2022-11-15T07:57:38.568Z,1.65
2022-11-15T08:00:23.781Z,1.76
2022-11-15T08:03:11.538Z,1.61
2022-11-15T08:05:56.748Z,1.74
2022-11-15T08:08:42.077Z,1.82
2022-11-15T08:11:26.831Z,1.62
2022-11-15T08:14:11.732Z,1.56
2022-11-15T08:16:56.673Z,1.64
2022-11-15T08:19:41.642Z,1.80
2022-11-15T08:22:27.194Z,2.03
2022-11-15T08:25:12.571Z,2.33
2022-11-15T08:28:03.369Z,2.29
2022-11-15T08:30:48.674Z,2.48
2022-11-15T08:33:34.636Z,2.72
2022-11-15T08:36:20.049Z,2.64
2022-11-15T08:39:06.063Z,2.59
2022-11-15T08:41:51.177Z,2.90
2022-11-15T08:44:36.712Z,2.53
2022-11-15T08:47:22.007Z,2.29
2022-11-15T08:50:07.685Z,2.46
2022-11-15T08:52:52.663Z,2.79
2022-11-15T08:55:39.257Z,2.79
2022-11-15T08:58:24.396Z,2.43
2022-11-15T09:01:18.681Z,2.59
2022-11-15T09:04:04.865Z,3.25
2022-11-15T09:06:50.293Z,3.28
2022-11-15T09:09:35.463Z,3.66
2022-11-15T09:12:20.533Z,3.66
2022-11-15T09:15:06.581Z,3.37
2022-11-15T09:17:51.587Z,3.28
2022-11-15T09:20:36.658Z,2.96
2022-11-15T09:23:21.962Z,3.52
2022-11-15T09:26:07.936Z,3.45
2022-11-15T09:28:52.804Z,3.72
2022-11-15T09:31:37.782Z,3.85
2022-11-15T09:34:23.085Z,4.03
2022-11-15T09:37:08.150Z,4.16
2022-11-15T09:39:53.402Z,4.48
2022-11-15T09:43:05.985Z,4.65
2022-11-15T09:46:17.418Z,4.91
2022-11-15T09:49:05.377Z,5.10
2022-11-15T09:51:54.886Z,5.41
2022-11-15T09:57:17.942Z,5.52
2022-11-15T09:59:57.458Z,5.54
2022-11-15T10:03:03.688Z,5.97
2022-11-15T10:05:31.434Z,6.18
2022-11-15T10:08:06.915Z,6.42
2022-11-15T10:11:30.662Z,6.25
2022-11-15T10:13:50.302Z,6.42
2022-11-15T10:16:28.940Z,6.53
2022-11-15T10:19:01.611Z,6.60
2022-11-15T10:22:09.570Z,6.51
2022-11-15T10:24:42.818Z,6.68
2022-11-15T10:27:13.128Z,6.63
2022-11-15T10:29:47.584Z,6.94
2022-11-15T10:32:15.691Z,7.08
2022-11-15T10:34:42.547Z,7.33
2022-11-15T10:37:09.112Z,7.37
2022-11-15T10:39:35.593Z,7.47
2022-11-15T10:42:29.073Z,7.63
2022-11-15T10:44:56.288Z,7.43
2022-11-15T10:47:29.007Z,7.45
2022-11-15T10:50:01.359Z,7.44
2022-11-15T10:52:29.833Z,7.57
2022-11-15T10:55:03.654Z,7.61
2022-11-15T10:57:38.617Z,8.01
2022-11-15T11:00:29.960Z,8.24
2022-11-15T11:02:56.468Z,8.25
2022-11-15T11:05:27.722Z,8.29
2022-11-15T11:08:20.089Z,8.29
2022-11-15T11:11:00.081Z,8.06
2022-11-15T11:13:41.098Z,8.28
2022-11-15T11:33:21.330Z,8.02
2022-11-15T11:36:12.763Z,8.22
2022-11-15T11:38:55.894Z,8.43
2022-11-15T11:41:25.808Z,8.54
2022-11-15T11:44:30.093Z,8.68
2022-11-15T11:46:56.509Z,8.82
2022-11-15T11:49:32.079Z,8.95
2022-11-15T11:52:19.852Z,9.01
2022-11-15T11:55:02.922Z,8.93
2022-11-15T11:57:41.393Z,8.93
2022-11-15T12:00:24.080Z,9.05
2022-11-15T12:03:08.783Z,9.03
2022-11-15T12:05:45.865Z,8.86
2022-11-15T12:08:25.556Z,8.81
2022-11-15T12:11:00.334Z,8.77
2022-11-15T12:13:34.446Z,8.89
2022-11-15T12:16:10.660Z,8.96
2022-11-15T12:18:38.368Z,8.89
2022-11-15T12:21:16.507Z,8.87
2022-11-15T12:23:59.118Z,8.68
2022-11-15T12:26:33.952Z,9.16
2022-11-15T12:29:08.829Z,8.79
2022-11-15T12:31:35.668Z,9.08
2022-11-15T12:34:07.435Z,9.05
2022-11-15T12:36:52.750Z,9.13
2022-11-15T12:39:20.243Z,9.28
2022-11-15T12:41:55.921Z,9.35
2022-11-15T12:44:31.630Z,9.23
2022-11-15T12:46:58.115Z,9.30
2022-11-15T12:49:24.574Z,9.50
2022-11-15T12:51:52.949Z,9.40
2022-11-15T12:54:22.363Z,9.36
2022-11-15T12:57:03.830Z,9.38
2022-11-15T12:59:55.769Z,9.50
2022-11-15T13:02:27.526Z,9.47
2022-11-15T13:05:16.163Z,9.50
2022-11-15T13:07:42.664Z,9.58
2022-11-15T13:10:09.059Z,9.42
2022-11-15T13:12:39.906Z,9.42
2022-11-15T13:15:12.320Z,9.22
2022-11-15T13:17:49.864Z,8.83
2022-11-15T13:20:16.312Z,8.96
2022-11-15T13:23:14.549Z,8.81
2022-11-15T13:26:12.472Z,8.58
2022-11-15T13:28:50.517Z,8.64
2022-11-15T13:31:31.350Z,8.62
2022-11-15T13:34:44.221Z,8.73
2022-11-15T13:37:02.335Z,8.49
2022-11-15T13:39:31.571Z,8.59
2022-11-15T13:41:58.844Z,8.60
2022-11-15T13:44:28.021Z,8.73
2022-11-15T13:47:19.645Z,8.64
2022-11-15T13:49:46.239Z,8.44
2022-11-15T13:52:15.699Z,8.71
2022-11-15T13:54:47.977Z,8.58
2022-11-15T13:57:23.953Z,8.48
2022-11-15T13:59:58.979Z,8.43
2022-11-15T14:02:33.459Z,8.38
2022-11-15T14:05:16.930Z,8.31
2022-11-15T14:07:55.564Z,8.01
2022-11-15T14:10:30.966Z,8.22
2022-11-15T14:12:58.552Z,8.23
2022-11-15T14:15:30.023Z,8.25
2022-11-15T14:17:56.758Z,8.20
2022-11-15T14:20:35.338Z,8.23
2022-11-15T14:23:27.896Z,8.17
2022-11-15T14:25:58.035Z,8.09
2022-11-15T14:28:24.512Z,8.13
2022-11-15T14:30:53.731Z,8.09
2022-11-15T14:33:30.257Z,7.99
2022-11-15T14:35:58.645Z,7.91
2022-11-15T14:38:26.749Z,7.89
2022-11-15T14:40:54.915Z,7.88
2022-11-15T14:43:21.536Z,7.64
2022-11-15T14:45:48.198Z,7.74
2022-11-15T14:48:15.045Z,7.57
2022-11-15T14:50:41.634Z,7.60
2022-11-15T14:53:14.083Z,7.62
2022-11-15T14:55:41.557Z,7.52
2022-11-15T14:58:11.630Z,7.47
2022-11-15T15:00:40.410Z,7.46
2022-11-15T15:03:07.525Z,7.32
2022-11-15T15:05:37.389Z,7.36
2022-11-15T15:08:04.729Z,7.34
2022-11-15T15:10:40.771Z,7.24
2022-11-15T15:13:17.650Z,7.03
2022-11-15T15:15:44.351Z,7.10
2022-11-15T15:18:12.267Z,6.96
2022-11-15T15:20:41.247Z,6.87
2022-11-15T15:23:27.908Z,6.73
2022-11-15T15:25:54.443Z,6.80
2022-11-15T15:28:21.058Z,6.84
2022-11-15T15:30:47.530Z,6.78
2022-11-15T15:33:13.924Z,6.69
2022-11-15T15:35:40.670Z,6.55
2022-11-15T15:38:07.196Z,6.48
2022-11-15T15:40:34.186Z,6.40
2022-11-15T15:43:01.098Z,6.34
2022-11-15T15:45:28.820Z,6.31
2022-11-15T15:47:55.644Z,6.16
2022-11-15T15:50:27.932Z,6.17
2022-11-15T15:52:56.736Z,6.12
2022-11-15T15:55:23.866Z,6.16
2022-11-15T15:57:50.714Z,6.09
2022-11-15T16:00:18.478Z,6.04
2022-11-15T16:02:45.243Z,6.01
2022-11-15T16:05:12.860Z,6.08
2022-11-15T16:07:40.570Z,6.11
2022-11-15T16:10:18.788Z,6.13
2022-11-15T16:12:47.394Z,6.06
2022-11-15T16:15:14.006Z,5.90
2022-11-15T16:17:51.184Z,5.89
2022-11-15T16:20:40.300Z,5.75
2022-11-15T16:23:09.963Z,5.80
2022-11-15T16:25:46.454Z,5.89
2022-11-15T16:28:18.587Z,5.93
2022-11-15T16:30:45.114Z,5.77
2022-11-15T16:33:11.534Z,5.90
2022-11-15T16:35:38.102Z,5.87
2022-11-15T16:38:04.646Z,5.94
2022-11-15T16:40:32.267Z,5.96
2022-11-15T16:42:59.835Z,5.90
2022-11-15T16:45:29.150Z,5.61
2022-11-15T16:47:56.588Z,5.83
2022-11-15T16:50:29.243Z,5.63
2022-11-15T16:52:58.286Z,5.79
2022-11-15T16:55:28.080Z,5.84
2022-11-15T16:57:55.946Z,5.71
2022-11-15T17:00:22.545Z,5.63
2022-11-15T17:02:50.756Z,5.63
2022-11-15T17:05:20.401Z,5.71
2022-11-15T17:07:54.138Z,5.66
2022-11-15T17:10:25.632Z,5.65
2022-11-15T17:12:53.063Z,5.51
2022-11-15T17:15:19.974Z,5.56
2022-11-15T17:17:53.035Z,5.62
2022-11-15T17:20:21.944Z,5.62
2022-11-15T17:22:48.822Z,5.54
2022-11-15T17:25:15.501Z,5.50
2022-11-15T17:27:42.397Z,5.50
2022-11-15T17:30:13.105Z,5.60
2022-11-15T17:32:39.616Z,5.59
2022-11-15T17:35:14.892Z,5.48
2022-11-15T17:37:42.086Z,5.22
2022-11-15T17:40:09.402Z,5.46
2022-11-15T17:42:36.105Z,5.32
2022-11-15T17:45:08.126Z,5.24
2022-11-15T17:47:36.616Z,5.29
2022-11-15T17:50:03.615Z,5.32
2022-11-15T17:52:30.181Z,5.42
2022-11-15T17:54:56.570Z,5.43
2022-11-15T17:57:23.085Z,5.42
2022-11-15T17:59:49.615Z,5.43
2022-11-15T18:02:16.228Z,5.45
2022-11-15T18:04:42.722Z,5.44
2022-11-15T18:07:11.627Z,5.47
2022-11-15T18:09:42.109Z,5.47
2022-11-15T18:12:09.118Z,5.46
2022-11-15T18:14:35.900Z,5.43
2022-11-15T18:17:02.562Z,5.45
2022-11-15T18:19:29.084Z,5.52
2022-11-15T18:21:59.156Z,5.56
2022-11-15T18:24:31.137Z,5.46
2022-11-15T18:26:59.356Z,5.33
2022-11-15T18:29:26.322Z,5.14
2022-11-15T18:31:56.913Z,5.37
2022-11-15T18:34:25.260Z,5.30
2022-11-15T18:36:52.938Z,5.37
2022-11-15T18:39:20.114Z,5.21
2022-11-15T18:41:47.364Z,5.34
2022-11-15T18:44:14.573Z,5.34
2022-11-15T18:46:42.041Z,5.26
2022-11-15T18:49:10.347Z,5.24
2022-11-15T18:51:41.881Z,5.25
2022-11-15T18:54:10.753Z,5.24
2022-11-15T18:56:38.089Z,5.22
2022-11-15T18:59:05.191Z,5.23
2022-11-15T19:01:34.573Z,5.19
2022-11-15T19:04:13.940Z,5.15
2022-11-15T19:06:43.914Z,5.13
2022-11-15T19:09:12.170Z,5.13
2022-11-15T19:11:39.968Z,4.96
2022-11-15T19:14:09.088Z,5.11
2022-11-15T19:16:38.552Z,5.13
2022-11-15T19:19:07.648Z,5.16
2022-11-15T19:21:34.575Z,5.21
2022-11-15T19:24:02.173Z,5.10
2022-11-15T19:26:29.800Z,5.07
2022-11-15T19:29:01.585Z,5.12
2022-11-15T19:31:30.276Z,5.08
2022-11-15T19:33:59.556Z,4.99
2022-11-15T19:36:34.061Z,5.13
2022-11-15T19:39:08.158Z,5.04
2022-11-15T19:41:36.455Z,5.02
2022-11-15T19:44:03.207Z,4.81
2022-11-15T19:46:29.805Z,4.79
2022-11-15T19:48:56.298Z,4.92
2022-11-15T19:51:23.826Z,4.95
2022-11-15T19:53:53.262Z,4.96
2022-11-15T19:56:20.923Z,4.85
2022-11-15T19:58:52.171Z,4.94
2022-11-15T20:01:26.115Z,4.94
2022-11-15T20:03:55.040Z,4.98
2022-11-15T20:06:24.552Z,4.96
2022-11-15T20:08:51.547Z,4.92
2022-11-15T20:11:18.876Z,4.93
2022-11-15T20:13:46.013Z,4.93
2022-11-15T20:16:19.476Z,4.94
2022-11-15T20:18:46.851Z,4.89
2022-11-15T20:21:13.705Z,4.92
2022-11-15T20:23:40.592Z,4.74
2022-11-15T20:26:08.028Z,4.85
2022-11-15T20:28:36.883Z,4.87
2022-11-15T20:31:04.158Z,4.90
2022-11-15T20:33:30.819Z,4.92
2022-11-15T20:35:57.359Z,4.93
2022-11-15T20:38:24.231Z,4.98
2022-11-15T20:40:57.473Z,4.94
2022-11-15T20:43:26.469Z,4.91
2022-11-15T20:45:53.039Z,4.80
2022-11-15T20:48:19.461Z,4.95
2022-11-15T20:50:47.103Z,4.94
2022-11-15T20:53:16.343Z,4.89
2022-11-15T20:55:52.381Z,4.89
2022-11-15T20:58:19.397Z,4.72
2022-11-15T21:00:46.245Z,4.92
2022-11-15T21:03:14.324Z,4.84
2022-11-15T21:05:42.725Z,4.75
2022-11-15T21:08:10.762Z,4.70
2022-11-15T21:10:55.935Z,4.69
2022-11-15T21:13:22.727Z,4.58
2022-11-15T21:15:49.497Z,4.63
2022-11-15T21:18:16.447Z,4.51
2022-11-15T21:20:43.309Z,4.59
2022-11-15T21:23:10.281Z,4.59
2022-11-15T21:25:36.858Z,4.55
2022-11-15T21:28:03.554Z,4.50
2022-11-15T21:30:30.687Z,4.48
2022-11-15T21:32:57.312Z,4.47
2022-11-15T21:35:24.230Z,4.44
2022-11-15T21:37:56.440Z,4.39
2022-11-15T21:40:24.413Z,4.20
2022-11-15T21:42:50.928Z,4.21
2022-11-15T21:45:17.347Z,4.23
2022-11-15T21:47:46.282Z,4.12
2022-11-15T21:50:13.860Z,4.10
2022-11-15T21:52:40.798Z,4.10
2022-11-15T21:55:08.438Z,4.13
2022-11-15T21:57:35.068Z,4.05
2022-11-15T22:00:20.363Z,3.93
2022-11-15T22:02:46.993Z,4.04
2022-11-15T22:05:13.658Z,4.02
2022-11-15T22:07:40.317Z,3.85
2022-11-15T22:10:07.098Z,4.00
2022-11-15T22:12:33.634Z,3.96
2022-11-15T22:15:00.158Z,3.99
2022-11-15T22:17:46.680Z,3.81
2022-11-15T22:20:37.577Z,3.94
2022-11-15T22:23:00.146Z,3.72
2022-11-15T22:25:27.966Z,3.90
2022-11-15T22:27:54.829Z,3.85
2022-11-15T22:30:22.115Z,3.71
2022-11-15T22:32:48.686Z,3.77
2022-11-15T22:35:15.177Z,3.87
2022-11-15T22:37:42.083Z,3.82
2022-11-15T22:40:09.732Z,3.76
2022-11-15T22:42:36.518Z,3.83
2022-11-15T22:45:03.460Z,3.81
2022-11-15T22:47:30.000Z,3.79
2022-11-15T22:49:56.563Z,3.81
2022-11-15T22:52:23.145Z,3.81
2022-11-15T22:54:49.689Z,3.83
2022-11-15T22:57:16.304Z,3.85
2022-11-15T22:59:42.962Z,3.85
2022-11-15T23:18:00.737Z,3.41
2022-11-15T23:20:42.611Z,3.40
2022-11-15T23:23:10.699Z,3.56
2022-11-15T23:25:37.399Z,3.29
2022-11-15T23:28:05.281Z,3.65
2022-11-15T23:30:57.088Z,3.58
2022-11-15T23:33:42.349Z,3.67
2022-11-15T23:36:09.054Z,3.70
2022-11-15T23:38:37.463Z,3.75
2022-11-15T23:41:05.719Z,3.81
2022-11-15T23:43:32.746Z,3.78
2022-11-15T23:46:02.523Z,3.64
2022-11-15T23:48:29.536Z,3.79
2022-11-15T23:50:56.201Z,3.68
2022-11-15T23:53:22.722Z,3.78
2022-11-15T23:56:02.970Z,3.67
2022-11-15T23:58:29.586Z,3.83
